Richton Park, Illinois
Current Conditions -  °F | °C
As of 9:55 PM on Sunday 23 Nov 2014 (Local Time) from KIGQ Reporting Station
Moderate Rain Moderate Rain  
Wind Chill: 50°   Ceiling: 600
Heat Index: 50°   Visibility: 5mi
Dew Point: 50°   Wind: 0mph
Humidity: 99%   Direction: NA
Pressure: 29.16"   Gusts: NA
Location:  41.48°N, 87.72°W
Report Text: KIGQ 240355Z AUTO 00000KT 5SM RA OVC006 10/10 A2916 RMK AO2 P0011 T01020100
Loading
Personal Weather Stations






























Interactive Weather Map New forecast layout! Learn more

10-Day Weather Forecast

Advertisements
Track Severe Weather on mobile